Time;durP1;ratioP1;P1;durP2;ratioP2;P2;SDS_P1;SDS_P2;PMS_P1;PMS_P2;Temp;Humidity;BMP_temperature;BMP_pressure;BME280_temperature;BME280_humidity;BME280_pressure;Samples;Min_cycle;Max_cycle;Signal;HPM_P1;HPM_P2
2022/10/24 00:00:08;;;;;;;6.95;1.10;;;16.50;99.90;;;16.25;94.02;96916.47;4970214;28;20445;-47
2022/10/24 00:02:34;;;;;;;3.53;1.13;;;16.50;99.90;;;16.18;93.91;96922.19;4970864;28;20057;-43
2022/10/24 00:05:00;;;;;;;5.20;0.80;;;16.40;99.90;;;16.05;95.61;96899.22;4955924;28;22219;-46
2022/10/24 00:07:26;;;;;;;5.78;1.38;;;16.40;99.90;;;16.10;96.52;96915.72;4980956;28;20057;-44
2022/10/24 00:09:52;;;;;;;2.53;1.02;;;16.30;99.90;;;16.08;95.18;96917.59;4966036;28;20033;-47
2022/10/24 00:12:18;;;;;;;3.83;0.90;;;16.30;99.90;;;15.99;96.38;96916.44;4973867;28;20370;-44
2022/10/24 00:14:45;;;;;;;6.20;1.23;;;16.20;99.90;;;15.86;96.23;96903.06;4978030;28;20660;-44
2022/10/24 00:17:11;;;;;;;4.78;1.20;;;16.20;99.90;;;15.89;97.01;96913.50;4987826;28;20037;-43
2022/10/24 00:19:36;;;;;;;2.83;1.10;;;16.10;99.90;;;15.86;96.43;96910.22;4968685;28;20046;-47
2022/10/24 00:22:02;;;;;;;3.45;0.93;;;16.10;99.90;;;15.94;95.45;96915.88;4975707;28;23984;-44
2022/10/24 00:24:28;;;;;;;5.88;1.40;;;16.10;99.90;;;15.96;95.25;96917.47;4977016;28;20037;-48
2022/10/24 00:26:54;;;;;;;3.50;0.90;;;16.20;99.90;;;15.92;95.50;96918.63;4985823;28;20034;-46
2022/10/24 00:29:19;;;;;;;6.13;1.20;;;16.20;99.90;;;15.96;94.89;96924.59;4989641;28;20041;-47
2022/10/24 00:31:46;;;;;;;10.50;1.30;;;16.20;99.90;;;15.92;96.10;96923.97;4992039;28;20485;-44
2022/10/24 00:34:11;;;;;;;2.97;1.00;;;16.10;99.90;;;15.89;96.41;96925.97;4984976;28;20030;-48
2022/10/24 00:36:37;;;;;;;4.03;1.23;;;16.10;99.90;;;15.81;98.10;96926.47;4981211;28;20479;-44
2022/10/24 00:39:03;;;;;;;5.70;0.93;;;16.10;99.90;;;15.71;100.00;96931.50;4976635;28;20034;-46
2022/10/24 00:41:34;;;;;;;5.80;1.35;;;16.00;99.90;;;15.66;99.22;96938.91;4976600;28;20041;-46
2022/10/24 00:44:24;;;;;;;6.57;1.40;;;16.00;99.90;;;15.65;100.00;96931.91;4977271;28;20418;-44
2022/10/24 00:47:15;;;;;;;6.15;1.63;;;15.90;99.90;;;15.64;100.00;96930.19;4976360;28;20252;-45
2022/10/24 00:50:03;;;;;;;5.07;1.50;;;15.90;99.90;;;15.59;99.99;96927.81;4975021;28;20112;-45
2022/10/24 00:52:37;;;;;;;5.70;1.52;;;15.90;99.90;;;15.59;100.00;96922.50;4982730;28;20290;-45
2022/10/24 00:55:04;;;;;;;2.92;0.98;;;15.90;99.90;;;15.59;100.00;96932.28;4974716;28;20553;-44
2022/10/24 00:57:53;;;;;;;4.80;1.23;;;15.90;99.90;;;15.56;100.00;96929.81;4990429;28;20038;-48
2022/10/24 01:00:25;;;;;;;11.60;1.73;;;15.90;99.90;;;15.55;100.00;96925.47;4983929;28;20436;-47
2022/10/24 01:02:51;;;;;;;4.87;1.33;;;15.80;99.90;;;15.56;100.00;96932.47;4974313;28;20029;-48
2022/10/24 01:05:20;;;;;;;4.20;1.05;;;15.80;99.90;;;15.52;100.00;96928.31;4974814;28;20106;-46
2022/10/24 01:07:52;;;;;;;4.95;1.02;;;15.80;99.90;;;15.46;100.00;96927.75;4980616;28;20066;-46
2022/10/24 01:10:51;;;;;;;4.40;1.33;;;15.70;99.90;;;15.45;100.00;96926.06;4989526;28;20026;-45
2022/10/24 01:14:04;;;;;;;3.75;1.00;;;15.70;99.90;;;15.43;100.00;96938.59;4973146;28;20116;-46
2022/10/24 01:17:02;;;;;;;6.07;1.83;;;15.70;99.90;;;15.44;100.00;96934.13;4975337;28;20232;-46
2022/10/24 01:19:58;;;;;;;4.63;1.10;;;15.70;99.90;;;15.42;100.00;96942.19;4976923;28;20034;-44
2022/10/24 01:22:36;;;;;;;9.85;1.38;;;15.70;99.90;;;15.42;100.00;96936.03;4971328;28;20058;-44
2022/10/24 01:25:14;;;;;;;6.43;1.25;;;15.70;99.90;;;15.37;100.00;96938.97;4993416;28;20044;-45
2022/10/24 01:27:52;;;;;;;3.92;1.42;;;15.70;99.90;;;15.34;100.00;96933.00;4977583;28;20524;-46
2022/10/24 01:30:18;;;;;;;5.15;1.67;;;15.60;99.90;;;15.35;100.00;96935.56;4972737;28;20043;-48
2022/10/24 01:33:27;;;;;;;4.28;1.23;;;15.60;99.90;;;15.35;100.00;96940.03;4979703;28;20376;-45
2022/10/24 01:36:25;;;;;;;6.30;1.25;;;15.60;99.90;;;15.36;100.00;96942.59;4975521;28;22005;-44
2022/10/24 01:38:56;;;;;;;7.93;1.70;;;15.60;99.90;;;15.43;100.00;96943.03;4976202;28;20092;-46
2022/10/24 01:41:27;;;;;;;5.13;1.65;;;15.60;99.90;;;15.43;100.00;96929.75;4997076;28;20056;-44
2022/10/24 01:44:01;;;;;;;7.43;1.40;;;15.70;99.90;;;15.45;100.00;96936.69;4969549;28;20064;-44
2022/10/24 01:46:34;;;;;;;3.88;1.65;;;15.70;99.90;;;15.49;100.00;96928.50;4973784;28;20057;-47
2022/10/24 01:49:12;;;;;;;7.07;1.40;;;15.70;99.90;;;15.48;100.00;96940.94;4972679;28;20176;-44
2022/10/24 01:51:39;;;;;;;5.25;1.20;;;15.70;99.90;;;15.43;100.00;96938.59;4983667;28;20029;-44
2022/10/24 01:54:08;;;;;;;3.55;1.50;;;15.70;99.90;;;15.39;100.00;96949.50;4979274;28;20045;-44
2022/10/24 01:56:34;;;;;;;5.72;1.35;;;15.60;99.90;;;15.31;100.00;96950.00;4989643;28;20139;-45
2022/10/24 01:59:28;;;;;;;10.73;1.40;;;15.60;99.90;;;15.27;100.00;96945.81;4967699;28;23732;-44
2022/10/24 02:02:00;;;;;;;3.55;1.30;;;15.50;99.90;;;15.25;100.00;96942.41;4978798;28;20135;-45
2022/10/24 02:04:29;;;;;;;6.32;1.25;;;15.50;99.90;;;15.24;100.00;96938.06;4980683;28;20518;-44
2022/10/24 02:06:59;;;;;;;2.78;1.10;;;15.50;99.90;;;15.20;100.00;96941.84;4973126;28;20054;-46
2022/10/24 02:09:25;;;;;;;7.40;1.33;;;15.50;99.90;;;15.15;100.00;96952.78;4970158;28;20210;-46
2022/10/24 02:11:52;;;;;;;5.53;1.23;;;15.40;99.90;;;15.14;100.00;96958.16;4961545;28;20650;-43
2022/10/24 02:14:26;;;;;;;3.60;1.10;;;15.40;99.90;;;15.16;100.00;96953.63;4972248;28;20022;-44
2022/10/24 02:16:53;;;;;;;3.75;1.20;;;15.40;99.90;;;15.15;100.00;96958.09;4968838;28;21672;-45
2022/10/24 02:19:19;;;;;;;5.57;1.58;;;15.40;99.90;;;15.12;100.00;96950.28;4972670;28;20253;-46
2022/10/24 02:22:10;;;;;;;6.75;1.70;;;15.40;99.90;;;15.23;100.00;96949.63;4971969;28;21264;-43
2022/10/24 02:25:00;;;;;;;7.78;1.40;;;15.50;99.90;;;15.26;100.00;96942.31;4958083;28;20100;-42
2022/10/24 02:27:40;;;;;;;4.78;1.20;;;15.50;99.90;;;15.25;100.00;96939.75;4974430;28;20382;-45
2022/10/24 02:30:15;;;;;;;3.58;0.98;;;15.50;99.90;;;15.21;100.00;96927.63;4965285;28;20116;-46
2022/10/24 02:32:46;;;;;;;5.32;1.50;;;15.50;99.90;;;15.11;100.00;96921.19;4969620;28;20514;-47
2022/10/24 02:35:16;;;;;;;3.65;1.30;;;15.40;99.90;;;15.08;100.00;96919.56;4988099;28;20057;-47
2022/10/24 02:37:48;;;;;;;4.45;1.10;;;15.40;99.90;;;15.01;100.00;96916.44;4968689;28;20025;-46
2022/10/24 02:40:17;;;;;;;7.63;1.70;;;15.30;99.90;;;14.93;100.00;96909.91;4966889;28;20026;-45
2022/10/24 02:42:45;;;;;;;6.30;1.23;;;15.20;99.90;;;14.84;100.00;96906.00;4985251;28;20038;-44
2022/10/24 02:45:14;;;;;;;5.55;1.40;;;15.10;99.90;;;14.78;100.00;96901.94;4984922;28;20559;-43
2022/10/24 02:47:41;;;;;;;5.15;1.52;;;15.10;99.90;;;14.74;100.00;96896.94;4973959;28;20057;-46
2022/10/24 02:50:08;;;;;;;6.15;1.50;;;15.00;99.90;;;14.70;100.00;96899.78;4975554;28;20600;-44
2022/10/24 02:52:36;;;;;;;4.07;1.30;;;15.00;99.90;;;14.66;100.00;96895.59;4971763;28;20310;-46
2022/10/24 02:55:02;;;;;;;6.28;1.20;;;14.90;99.90;;;14.63;100.00;96889.63;4973087;28;20034;-43
2022/10/24 02:57:27;;;;;;;5.85;1.50;;;14.90;99.90;;;14.63;100.00;96886.97;4969611;28;20046;-44
2022/10/24 02:59:53;;;;;;;6.75;1.67;;;14.90;99.90;;;14.63;100.00;96886.97;4972968;28;20038;-44
2022/10/24 03:02:19;;;;;;;4.80;1.58;;;14.90;99.90;;;14.65;100.00;96895.69;4963488;28;20033;-45
2022/10/24 03:04:45;;;;;;;6.78;2.03;;;14.90;99.90;;;14.69;100.00;96895.41;4975225;28;21139;-46
2022/10/24 03:07:11;;;;;;;10.18;1.75;;;14.90;99.90;;;14.75;100.00;96907.47;4967563;28;20042;-44
2022/10/24 03:09:37;;;;;;;8.43;1.92;;;15.00;99.90;;;14.81;100.00;96901.75;4974686;28;20446;-43
2022/10/24 03:12:03;;;;;;;6.28;1.63;;;15.10;99.90;;;14.89;100.00;96904.81;4983107;28;20029;-43
2022/10/24 03:14:29;;;;;;;5.00;1.60;;;15.20;99.90;;;14.93;100.00;96904.59;4987290;28;20435;-44
2022/10/24 03:16:54;;;;;;;4.82;1.48;;;15.20;99.90;;;14.94;100.00;96909.81;4978145;28;20096;-47
2022/10/24 03:19:20;;;;;;;8.27;1.77;;;15.20;99.90;;;14.99;100.00;96912.19;4986913;28;20076;-44
2022/10/24 03:21:46;;;;;;;7.68;1.80;;;15.20;99.90;;;15.03;100.00;96909.22;4975739;28;20125;-46
2022/10/24 03:24:11;;;;;;;8.65;2.20;;;15.30;99.90;;;14.98;100.00;96899.84;4981810;28;20592;-44
2022/10/24 03:26:37;;;;;;;6.28;1.92;;;15.20;99.90;;;15.05;100.00;96907.31;4977173;28;20033;-43
2022/10/24 03:29:03;;;;;;;8.25;2.53;;;15.30;99.90;;;15.11;100.00;96916.75;4971487;28;20670;-46
2022/10/24 03:31:30;;;;;;;11.20;2.75;;;15.30;99.90;;;15.13;100.00;96921.94;4971490;28;20136;-44
2022/10/24 03:33:56;;;;;;;9.35;2.35;;;15.40;99.90;;;15.15;100.00;96917.41;4973837;28;20160;-45
2022/10/24 03:36:22;;;;;;;11.13;2.00;;;15.40;99.90;;;15.18;100.00;96925.16;4973514;28;20423;-47
2022/10/24 03:38:48;;;;;;;7.88;2.00;;;15.40;99.90;;;15.24;100.00;96916.81;4981609;28;20050;-44
2022/10/24 03:41:14;;;;;;;6.45;2.30;;;15.50;99.90;;;15.26;100.00;96913.09;4981412;28;20152;-46
2022/10/24 03:43:39;;;;;;;11.90;2.45;;;15.50;99.90;;;15.26;100.00;96909.59;4980200;28;20121;-46
2022/10/24 03:46:05;;;;;;;8.25;1.95;;;15.50;99.90;;;15.28;100.00;96907.69;4974559;28;20289;-45
2022/10/24 03:48:31;;;;;;;5.63;2.30;;;15.50;99.90;;;15.33;100.00;96894.13;4966419;28;20152;-44
2022/10/24 03:50:57;;;;;;;6.88;2.50;;;15.60;99.90;;;15.33;100.00;96896.78;4988262;23;20065;-41
2022/10/24 03:53:23;;;;;;;8.32;2.38;;;15.60;99.90;;;15.31;100.00;96904.84;4985468;28;20635;-41
2022/10/24 03:55:49;;;;;;;11.13;3.08;;;15.60;99.90;;;15.32;100.00;96911.00;4981216;28;20469;-42
2022/10/24 03:58:15;;;;;;;10.52;2.70;;;15.60;99.90;;;15.31;100.00;96911.94;4978474;28;20606;-41
2022/10/24 04:00:41;;;;;;;6.93;2.20;;;15.60;99.90;;;15.27;100.00;96911.28;4968227;28;20033;-41
2022/10/24 04:03:08;;;;;;;6.75;1.95;;;15.60;99.90;;;15.20;100.00;96905.53;4965582;28;20117;-41
2022/10/24 04:05:34;;;;;;;10.32;2.00;;;15.50;99.90;;;15.18;100.00;96911.88;4962705;28;20068;-41
2022/10/24 04:08:01;;;;;;;12.80;2.28;;;15.50;99.90;;;15.10;100.00;96922.13;4960335;28;20455;-41
2022/10/24 04:10:27;;;;;;;4.30;2.08;;;15.30;99.90;;;15.02;100.00;96920.81;4946361;28;21133;-41
2022/10/24 04:12:53;;;;;;;7.78;1.85;;;15.30;99.90;;;14.96;100.00;96918.53;4949087;28;20159;-41
2022/10/24 04:15:19;;;;;;;6.97;1.85;;;15.30;99.90;;;15.01;100.00;96921.75;4949486;28;20070;-41
2022/10/24 04:17:45;;;;;;;12.10;2.30;;;15.30;99.90;;;14.99;100.00;96921.00;4956979;28;20030;-41
2022/10/24 04:20:11;;;;;;;10.52;2.35;;;15.20;99.90;;;14.97;100.00;96919.41;4955211;28;20175;-41
2022/10/24 04:22:36;;;;;;;6.68;2.25;;;15.20;99.90;;;14.96;100.00;96923.84;4948365;28;20494;-41
2022/10/24 04:25:03;;;;;;;6.43;2.13;;;15.20;99.90;;;14.94;100.00;96920.44;4943382;28;20046;-41
2022/10/24 04:27:28;;;;;;;5.30;2.00;;;15.20;99.90;;;14.89;100.00;96923.38;4955222;28;20041;-42
2022/10/24 04:29:54;;;;;;;8.40;2.17;;;15.20;99.90;;;14.88;100.00;96924.31;4949219;28;20026;-41
2022/10/24 04:32:20;;;;;;;6.07;1.92;;;15.20;99.90;;;14.87;100.00;96909.31;4951198;28;20089;-41
2022/10/24 04:34:46;;;;;;;7.13;2.22;;;15.10;99.90;;;14.84;100.00;96903.34;4958316;28;20241;-41
2022/10/24 04:37:11;;;;;;;10.63;2.17;;;15.10;99.90;;;14.84;100.00;96892.75;4964271;28;20064;-41
2022/10/24 04:39:37;;;;;;;8.30;2.13;;;15.10;99.90;;;14.78;100.00;96890.47;4956605;28;20043;-41
2022/10/24 04:42:03;;;;;;;11.20;2.50;;;15.10;99.90;;;14.78;100.00;96898.44;4956049;28;20497;-41
2022/10/24 04:44:29;;;;;;;10.23;2.10;;;15.10;99.90;;;14.76;100.00;96895.88;4956249;28;20039;-41
2022/10/24 04:46:54;;;;;;;8.90;2.17;;;15.00;99.90;;;14.66;100.00;96879.69;4954973;28;20483;-41
2022/10/24 04:49:20;;;;;;;9.32;2.17;;;15.00;99.90;;;14.78;100.00;96903.75;4975294;28;20676;-41
2022/10/24 04:51:46;;;;;;;7.75;1.92;;;15.00;99.90;;;14.78;100.00;96915.22;4972941;28;20542;-42
2022/10/24 04:54:11;;;;;;;6.38;2.10;;;15.10;99.90;;;14.78;100.00;96906.41;4973555;28;20026;-42
2022/10/24 04:56:37;;;;;;;3.53;1.58;;;15.10;99.90;;;14.68;100.00;96882.25;4967313;28;20045;-41
2022/10/24 04:59:04;;;;;;;7.63;2.22;;;15.10;99.90;;;14.86;100.00;96912.09;4974439;28;20472;-40
2022/10/24 05:01:29;;;;;;;7.47;2.17;;;15.10;99.90;;;14.85;100.00;96911.22;4968735;28;20116;-41
2022/10/24 05:03:55;;;;;;;11.15;2.50;;;15.10;99.90;;;14.87;100.00;96914.63;4969294;28;20594;-41
2022/10/24 05:06:21;;;;;;;10.50;2.35;;;15.20;99.90;;;14.88;100.00;96912.84;4972458;28;20114;-41
2022/10/24 05:08:46;;;;;;;8.50;2.00;;;15.20;99.90;;;14.87;100.00;96911.97;4958769;28;20042;-42
2022/10/24 05:11:12;;;;;;;6.28;2.10;;;15.20;99.90;;;14.85;100.00;96915.69;4953187;28;20112;-41
2022/10/24 05:13:38;;;;;;;7.65;2.35;;;15.10;99.90;;;14.89;100.00;96911.91;4971572;28;20042;-42
2022/10/24 05:16:05;;;;;;;10.90;2.40;;;15.10;99.90;;;14.97;100.00;96914.09;4948332;28;20507;-41
2022/10/24 05:18:31;;;;;;;8.95;2.20;;;15.20;99.90;;;15.10;100.00;96917.69;4959128;28;20073;-41
2022/10/24 05:20:59;;;;;;;9.82;2.47;;;15.30;99.90;;;15.26;100.00;96923.72;4960062;28;20058;-40
2022/10/24 05:23:25;;;;;;;10.43;2.30;;;15.50;99.90;;;15.41;100.00;96911.25;4974770;28;21267;-41
2022/10/24 05:25:51;;;;;;;9.00;2.20;;;15.60;99.90;;;15.57;100.00;96924.41;4963070;28;20030;-40
2022/10/24 05:28:17;;;;;;;11.88;1.88;;;15.80;99.90;;;15.68;100.00;96915.72;4973968;28;20038;-42
2022/10/24 05:30:44;;;;;;;10.55;2.03;;;15.90;99.90;;;15.79;100.00;96928.34;4973803;28;20033;-41
2022/10/24 05:33:10;;;;;;;5.68;2.10;;;16.00;99.90;;;15.89;100.00;96931.28;4967216;28;20117;-41
2022/10/24 05:35:37;;;;;;;7.03;2.00;;;16.10;99.90;;;15.99;100.00;96943.03;4973244;28;20042;-42
2022/10/24 05:38:03;;;;;;;13.82;2.20;;;16.20;99.90;;;16.03;100.00;96936.53;4963960;28;20088;-40
2022/10/24 05:40:28;;;;;;;6.47;2.00;;;16.20;99.90;;;15.98;100.00;96942.16;4943534;28;20034;-41
2022/10/24 05:42:54;;;;;;;5.03;1.70;;;16.20;99.90;;;15.92;100.00;96939.06;4960749;28;20161;-41
2022/10/24 05:45:20;;;;;;;6.65;2.10;;;16.20;99.90;;;15.87;100.00;96938.50;4963336;28;20242;-43
2022/10/24 05:47:46;;;;;;;4.65;1.85;;;16.10;99.90;;;15.81;100.00;96934.47;4955382;28;20041;-42
2022/10/24 05:50:12;;;;;;;8.52;1.63;;;16.10;99.90;;;15.74;100.00;96930.44;4966991;28;20057;-41
2022/10/24 05:52:38;;;;;;;7.05;1.92;;;16.00;99.90;;;15.64;100.00;96930.19;4969321;28;20073;-41
2022/10/24 05:55:06;;;;;;;7.47;2.22;;;15.90;99.90;;;15.55;100.00;96941.41;4962116;28;20557;-42
2022/10/24 05:57:31;;;;;;;8.55;2.00;;;15.90;99.90;;;15.50;100.00;96941.69;4961900;28;20532;-43
2022/10/24 05:59:57;;;;;;;7.03;1.88;;;15.80;99.90;;;15.47;100.00;96947.22;4944258;28;20047;-42
2022/10/24 06:02:23;;;;;;;5.97;1.83;;;15.80;99.90;;;15.45;100.00;96954.41;4970048;28;20357;-42
2022/10/24 06:04:49;;;;;;;4.43;1.77;;;15.80;99.90;;;15.43;100.00;96969.63;4972293;28;20217;-43
2022/10/24 06:07:17;;;;;;;9.50;2.53;;;15.70;99.90;;;15.25;100.00;96953.03;4965878;28;20126;-41
2022/10/24 06:09:43;;;;;;;13.75;2.83;;;15.60;99.90;;;14.99;100.00;96963.50;4971617;28;20064;-43
2022/10/24 06:12:10;;;;;;;11.57;2.35;;;15.40;99.90;;;14.71;100.00;96966.97;4969627;28;20034;-42
2022/10/24 06:14:37;;;;;;;9.82;1.90;;;15.00;99.90;;;14.45;100.00;96982.63;4976998;28;20037;-42
2022/10/24 06:17:10;;;;;;;8.68;2.10;;;14.80;99.90;;;14.30;100.00;96988.81;4972502;28;20105;-43
2022/10/24 06:19:37;;;;;;;6.93;2.35;;;14.60;99.90;;;14.19;100.00;97002.69;4984816;28;20068;-42
2022/10/24 06:22:05;;;;;;;6.53;2.05;;;14.50;99.90;;;14.10;100.00;96989.97;4971431;28;20037;-41
2022/10/24 06:24:35;;;;;;;7.40;3.80;;;14.40;99.90;;;14.03;100.00;96991.28;4968541;28;20034;-41
2022/10/24 06:27:00;;;;;;;9.18;2.80;;;14.40;99.90;;;14.01;100.00;96977.25;4977961;28;20038;-42
2022/10/24 06:29:26;;;;;;;5.22;1.88;;;14.30;99.90;;;13.99;100.00;96979.16;4981620;28;20518;-41
2022/10/24 06:31:52;;;;;;;5.38;1.85;;;14.30;99.90;;;13.86;100.00;96965.75;4977297;28;20115;-42
2022/10/24 06:34:17;;;;;;;8.02;2.30;;;14.20;99.90;;;13.94;100.00;96982.94;4981570;28;20041;-42
2022/10/24 06:36:43;;;;;;;4.20;1.95;;;14.20;99.90;;;13.96;100.00;96987.28;4989652;28;20408;-42
2022/10/24 06:39:09;;;;;;;7.35;2.75;;;14.20;99.90;;;13.91;100.00;96979.59;4981760;28;20058;-41
2022/10/24 06:41:35;;;;;;;7.53;1.90;;;14.30;99.90;;;13.99;100.00;96987.94;4980900;28;20046;-42
2022/10/24 06:44:02;;;;;;;7.28;1.83;;;14.30;99.90;;;14.02;100.00;96984.28;4983019;28;20487;-42
2022/10/24 06:46:28;;;;;;;7.18;2.00;;;14.30;99.90;;;14.06;100.00;96991.09;4977013;28;20065;-41
2022/10/24 06:48:55;;;;;;;7.57;2.30;;;14.30;99.90;;;14.07;100.00;96993.69;4985298;28;20026;-42
2022/10/24 06:51:22;;;;;;;5.57;2.13;;;14.30;99.90;;;14.10;100.00;97006.78;4967142;28;20030;-42
2022/10/24 06:53:48;;;;;;;8.13;2.55;;;14.40;99.90;;;14.09;100.00;97001.53;4974497;28;22335;-41
2022/10/24 06:56:16;;;;;;;7.63;2.03;;;14.40;99.90;;;14.13;100.00;97008.38;4971738;28;20538;-42
2022/10/24 06:58:43;;;;;;;4.97;1.77;;;14.40;99.90;;;14.15;100.00;97009.13;4976569;28;20462;-42
2022/10/24 07:01:16;;;;;;;7.43;2.05;;;14.40;99.90;;;14.18;100.00;97030.19;4959937;28;20542;-42
2022/10/24 07:03:43;;;;;;;6.70;2.53;;;14.50;99.90;;;14.20;100.00;97049.50;4979596;28;20039;-42
2022/10/24 07:06:22;;;;;;;8.65;2.28;;;14.50;99.90;;;14.17;100.00;97046.19;4977517;28;20089;-42
2022/10/24 07:08:49;;;;;;;6.82;2.80;;;14.50;99.90;;;14.15;100.00;97019.75;4978300;28;20092;-41
2022/10/24 07:11:15;;;;;;;6.63;2.22;;;14.50;99.90;;;14.15;100.00;97024.19;4982403;28;20026;-42
2022/10/24 07:13:41;;;;;;;6.32;2.33;;;14.50;99.90;;;14.16;100.00;97018.81;4976570;28;20073;-41
2022/10/24 07:16:07;;;;;;;7.80;2.50;;;14.50;99.90;;;14.14;100.00;97026.00;4978766;28;20022;-41
2022/10/24 07:18:33;;;;;;;7.70;2.35;;;14.50;99.90;;;14.13;100.00;97040.19;4977137;28;20257;-42
2022/10/24 07:21:10;;;;;;;5.63;2.22;;;14.50;99.90;;;14.00;100.00;97005.56;4985073;28;20148;-42
2022/10/24 07:23:36;;;;;;;12.77;2.28;;;14.50;99.90;;;14.17;100.00;97033.75;4974465;28;20069;-41
2022/10/24 07:26:09;;;;;;;8.30;1.98;;;14.50;99.90;;;14.20;100.00;97027.44;4981822;28;20086;-42
2022/10/24 07:28:36;;;;;;;8.10;2.00;;;14.50;99.90;;;14.24;100.00;97031.63;4974701;28;20151;-42
2022/10/24 07:31:03;;;;;;;8.15;1.80;;;14.50;99.90;;;14.30;100.00;97031.25;4983316;28;20025;-41
2022/10/24 07:33:30;;;;;;;7.13;2.30;;;14.60;99.90;;;14.29;100.00;97011.84;4976886;28;20030;-44
2022/10/24 07:35:55;;;;;;;6.53;2.15;;;14.60;99.90;;;14.34;100.00;97016.91;4985746;28;20053;-42
2022/10/24 07:38:21;;;;;;;4.90;2.13;;;14.70;99.90;;;14.38;100.00;97025.53;4982515;28;20035;-42
2022/10/24 07:40:47;;;;;;;6.25;2.05;;;14.70;99.90;;;14.43;100.00;97026.13;4983907;28;20366;-43
2022/10/24 07:43:14;;;;;;;6.03;1.88;;;14.80;99.90;;;14.48;100.00;97027.56;4987148;28;20050;-42
2022/10/24 07:45:41;;;;;;;8.07;1.88;;;14.80;99.90;;;14.52;100.00;97039.69;4972051;28;20042;-42
2022/10/24 07:48:06;;;;;;;7.95;2.50;;;14.90;99.90;;;14.49;100.00;97029.25;4974376;28;20058;-42
2022/10/24 07:50:34;;;;;;;7.20;1.83;;;14.90;99.90;;;14.54;100.00;97030.81;4974782;28;20035;-42
2022/10/24 07:53:00;;;;;;;7.07;2.13;;;14.90;99.90;;;14.53;100.00;97027.28;4968350;28;20038;-42
2022/10/24 07:55:26;;;;;;;9.35;2.70;;;14.90;99.90;;;14.55;100.00;97030.69;4964933;28;21590;-43
2022/10/24 07:57:51;;;;;;;6.65;1.95;;;14.90;99.90;;;14.57;100.00;97044.75;4969341;28;20035;-43
2022/10/24 08:00:17;;;;;;;8.07;2.30;;;14.90;99.90;;;14.58;100.00;97056.22;4962319;28;20030;-42
2022/10/24 08:02:43;;;;;;;5.07;2.15;;;14.90;99.90;;;14.59;100.00;97044.66;4972040;28;20503;-42
2022/10/24 08:05:10;;;;;;;19.27;3.28;;;15.00;99.90;;;14.62;100.00;97049.78;4974569;28;20084;-43
2022/10/24 08:07:37;;;;;;;10.88;2.60;;;15.00;99.90;;;14.66;100.00;97054.84;4975153;28;20396;-42
2022/10/24 08:10:04;;;;;;;7.85;2.38;;;15.00;99.90;;;14.66;100.00;97057.50;4972743;28;20038;-43
2022/10/24 08:12:30;;;;;;;8.48;2.20;;;15.00;99.90;;;14.68;100.00;97049.44;4972665;28;20527;-44
2022/10/24 08:14:56;;;;;;;9.38;2.28;;;15.00;99.90;;;14.68;100.00;97037.03;4980010;28;20177;-42
2022/10/24 08:17:23;;;;;;;5.78;1.75;;;15.00;99.90;;;14.72;100.00;97031.53;4966698;28;20518;-42
2022/10/24 08:19:49;;;;;;;9.40;2.50;;;15.10;99.90;;;14.61;100.00;96987.06;4976415;28;20048;-42
2022/10/24 08:22:15;;;;;;;4.90;2.08;;;15.10;99.90;;;14.70;100.00;96976.75;4986153;28;20034;-43
2022/10/24 08:24:43;;;;;;;3.67;1.77;;;15.00;99.90;;;14.69;100.00;96985.63;4980076;28;20041;-42
2022/10/24 08:27:08;;;;;;;8.10;2.38;;;15.10;99.90;;;14.70;100.00;96992.66;4978193;28;20517;-42
2022/10/24 08:29:35;;;;;;;4.72;1.80;;;15.10;99.90;;;14.72;100.00;97012.97;4972533;28;20038;-43
2022/10/24 08:32:01;;;;;;;5.88;2.10;;;15.10;99.90;;;14.74;100.00;97001.28;4977202;28;20477;-43
2022/10/24 08:34:26;;;;;;;7.38;2.30;;;15.10;99.90;;;14.78;100.00;97001.97;4970303;28;20249;-41
2022/10/24 08:36:52;;;;;;;4.45;1.85;;;15.10;99.90;;;14.84;100.00;97004.22;4975585;28;20108;-42
2022/10/24 08:39:19;;;;;;;5.78;1.85;;;15.20;99.90;;;14.82;100.00;97009.66;4972804;28;20034;-42
2022/10/24 08:41:49;;;;;;;4.43;1.70;;;15.20;99.90;;;14.92;100.00;97009.94;4983508;28;20033;-41
2022/10/24 08:44:27;;;;;;;5.07;2.00;;;15.30;99.90;;;15.04;100.00;97003.91;4970790;28;20070;-43
2022/10/24 08:47:20;;;;;;;8.40;2.05;;;15.40;99.90;;;15.05;100.00;97000.28;4966410;28;20038;-42
2022/10/24 08:50:21;;;;;;;3.13;1.67;;;15.50;99.90;;;15.12;100.00;97008.72;4974364;28;20030;-41
2022/10/24 08:53:15;;;;;;;5.65;1.85;;;15.50;99.90;;;15.13;100.00;97023.72;4953861;28;20117;-41
2022/10/24 08:55:49;;;;;;;8.35;2.00;;;15.50;99.90;;;15.13;100.00;97031.69;4965950;28;20081;-41
2022/10/24 08:58:42;;;;;;;5.55;2.00;;;15.50;99.90;;;15.12;100.00;97011.38;4969154;28;20061;-41
2022/10/24 09:01:18;;;;;;;3.75;1.60;;;15.50;99.90;;;15.11;100.00;97007.03;4986387;28;20065;-41
2022/10/24 09:03:51;;;;;;;4.00;1.50;;;15.50;99.90;;;15.05;100.00;97004.75;4984436;28;20066;-42
2022/10/24 09:06:22;;;;;;;6.38;2.25;;;15.40;99.90;;;15.07;100.00;97014.34;4970057;28;20044;-43
2022/10/24 09:08:57;;;;;;;9.25;1.83;;;15.40;99.90;;;15.06;100.00;97019.75;4969269;28;20605;-41
2022/10/24 09:11:48;;;;;;;4.70;1.90;;;15.40;99.90;;;15.04;100.00;97022.47;4986865;28;20480;-42
2022/10/24 09:14:26;;;;;;;3.53;1.42;;;15.40;99.90;;;15.06;100.00;97035.66;4968554;28;20053;-41
2022/10/24 09:17:19;;;;;;;5.25;2.05;;;15.40;99.90;;;15.05;100.00;97041.91;4985163;28;20049;-42
2022/10/24 09:20:06;;;;;;;6.57;1.80;;;15.40;99.90;;;15.07;100.00;97058.59;4985138;28;20100;-41
2022/10/24 09:22:34;;;;;;;5.22;2.08;;;15.40;99.90;;;15.08;100.00;97074.44;4972003;28;20101;-41
2022/10/24 09:25:13;;;;;;;6.07;1.90;;;15.40;99.90;;;15.08;100.00;97069.13;4981773;28;20549;-42
2022/10/24 09:27:40;;;;;;;6.97;1.70;;;15.40;99.90;;;15.08;100.00;97065.63;4986590;28;20034;-41
2022/10/24 09:30:15;;;;;;;4.15;1.58;;;15.40;99.90;;;15.08;100.00;97066.50;4971270;28;20049;-42
2022/10/24 09:32:42;;;;;;;5.50;1.55;;;15.40;99.90;;;15.06;100.00;97067.53;4985659;28;20237;-41
2022/10/24 09:35:34;;;;;;;5.82;1.88;;;15.40;99.90;;;15.03;100.00;97067.72;4984701;28;20033;-42
2022/10/24 09:38:21;;;;;;;8.35;1.80;;;15.30;99.90;;;15.00;100.00;97079.38;4968540;28;20034;-41
2022/10/24 09:40:53;;;;;;;5.72;2.10;;;15.30;99.90;;;14.96;100.00;97069.03;4986429;28;20118;-41
2022/10/24 09:43:33;;;;;;;10.77;1.90;;;15.30;99.90;;;14.95;100.00;97062.00;4966276;28;20203;-42
2022/10/24 09:46:17;;;;;;;7.05;2.33;;;15.30;99.90;;;14.92;100.00;97068.34;4979515;28;20049;-41
2022/10/24 09:49:00;;;;;;;6.20;1.77;;;15.20;99.90;;;14.93;100.00;97064.78;4965881;28;20034;-41
2022/10/24 09:52:05;;;;;;;3.05;1.50;;;15.20;99.90;;;14.94;100.00;97066.47;5001463;23;21780;-44
2022/10/24 09:54:34;;;;;;;8.52;2.20;;;15.20;99.90;;;14.96;100.00;97061.06;4955506;28;20037;-45
2022/10/24 09:57:11;;;;;;;8.35;2.33;;;15.20;99.90;;;14.97;100.00;97053.00;5005327;28;20025;-46
2022/10/24 09:59:59;;;;;;;3.00;1.70;;;15.30;99.90;;;15.01;100.00;97053.69;5002931;28;21345;-43
2022/10/24 10:02:33;;;;;;;4.68;1.73;;;15.30;99.90;;;15.02;100.00;97055.38;4994872;28;20475;-46
2022/10/24 10:05:02;;;;;;;5.57;2.10;;;15.30;99.90;;;15.11;100.00;97064.59;4965751;28;20130;-45
2022/10/24 10:07:54;;;;;;;4.88;1.70;;;15.40;99.90;;;15.13;100.00;97071.53;4989513;28;20046;-44
2022/10/24 10:10:29;;;;;;;7.07;1.73;;;15.40;99.90;;;15.20;100.00;97066.69;4984331;28;20188;-45
2022/10/24 10:13:22;;;;;;;4.93;1.58;;;15.50;99.90;;;15.24;100.00;97065.56;4971641;28;20068;-45
2022/10/24 10:15:58;;;;;;;7.65;1.95;;;15.50;99.90;;;15.30;100.00;97054.56;4972339;28;20222;-46
2022/10/24 10:18:38;;;;;;;4.38;1.70;;;15.60;99.90;;;15.35;100.00;97062.25;4989971;28;20033;-45
2022/10/24 10:21:16;;;;;;;9.30;2.03;;;15.70;99.90;;;15.42;100.00;97064.44;4987241;28;20033;-45
2022/10/24 10:23:49;;;;;;;10.75;1.80;;;15.70;99.90;;;15.50;100.00;97058.63;4986970;28;20269;-45
2022/10/24 10:26:28;;;;;;;12.15;2.42;;;15.80;99.90;;;15.57;100.00;97056.44;4989199;28;20421;-45